Terminal Aerodrome Forecast
Issued by NWS Wilmington, OH

Current Version | Previous Version | Text Only | Print | Product List | Glossary Off
Versions: 1 2 3 4 5 6 7 8 9 10 11 12

468
FTUS41 KILN 051133
TAFILN
TAF
KILN 051133Z 0512/0612 26004KT P6SM SKC
     FM051800 22008KT P6SM FEW050 BKN250
     FM060600 24004KT P6SM SCT250=

USA.gov is the U.S. government's official web portal to all federal, state and local government web resources and services.